INFORMACIÓN METAR y TAF
METAR FOR LEPP
ADDS - METARS form results

(0458 UTC 16 February 2019)
Data provider http://aviationweather.gov/metar/data/
 
METAR text: LEPP 160430Z 00000KT CAVOK M01/M02 Q1028
Conditions at: LEPP (PAMPLONA/NOAIN , ES) observed 0430 UTC 16 February 2019
Temperature: -1.0°C (30°F)
Dewpoint: -2.0°C (28°F) [RH = 93%]
Pressure (altimeter): 30.35 inches Hg (1028.0 mb)
Winds: calm
Visibility: 6 or more miles (10+ km)
Ceiling: ceiling and visibility are OK
Clouds: unknown
Weather: no significant weather observed at this time

METAR text: LEPP 160400Z AUTO 00000KT 9999 NCD M01/M02 Q1028
Conditions at: LEPP (PAMPLONA/NOAIN , ES) observed 0400 UTC 16 February 2019
Temperature: -1.0°C (30°F)
Dewpoint: -2.0°C (28°F) [RH = 93%]
Pressure (altimeter): 30.35 inches Hg (1028.0 mb)
Winds: calm
Visibility: 6 or more miles (10+ km)
Ceiling: at least 12,000 feet AGL
Clouds: sky clear below 12,000 feet AGL
Weather: no significant weather observed at this time

Forecast for: LEPP (PAMPLONA/NOAIN , ES)
Text: TAF LEPP 160200Z 1603/1703 15005KT CAVOK TX15/1615Z TNM00/1607Z
Forecast period: 0300 UTC 16 February 2019 to 0300 UTC 17 February 2019
Forecast type: FROM: standard forecast or significant change
Winds: from the SSE (150 degrees) at 6 MPH (5 knots; 2.6 m/s)
Visibility: 6 or more miles 10+ km)
Ceiling: unknown
Clouds: missing
Weather: no significant weather forecast for this period

 MAPA DE AEROPUERTO

 INFORMACIÓN DE PISTA
Pista 15 Longitud 0 ft Ancho 0 ft
Elevación 1468 ft Umbral desplazado 0 ft Rumbo de pista 0
Pista 33 Longitud 0 ft Ancho 0 ft
Elevación 1500 ft Umbral desplazado 0 ft Rumbo de pista 0
Pista 16 Longitud 7241 ft Ancho 148 ft
Elevación 1468 ft Umbral desplazado 0 ft Rumbo de pista 152
Pista 34 Longitud 7241 ft Ancho 148 ft
Elevación 1504 ft Umbral desplazado 984 ft Rumbo de pista 332

 FRECUANCIAS DEL AEROPUERTO
Tipo APP Nombre APP Frecuencia 118.2 MHZ
Tipo GND Nombre GND Frecuencia 121.7 MHZ
Tipo TWR Nombre TWR Frecuencia 118.2 MHZ

 RADIO AYUDAS DEL AEROPUERTO
Tipo NDB Nombre Pamplona Frecuencia 422 KHZ
Tipo VOR-DME Nombre Pamplona Frecuencia 113550 KHZ
Tipo VOR-DME Nombre Pamplona Frecuencia 112300 KHZ



Powered by Virtual Airlines Manager [v2.6.2]